Ta-cho-shui, Taiwan
Current Conditions -  °F | °C
As of 1:00 AM on Tuesday 21 Oct 2014 (Local Time) from RCSS Reporting Station
Few Clouds Few Clouds  
Wind Chill: 77°   Ceiling: Unl
Heat Index: 79°   Visibility: 6mi
Dew Point: 70°   Wind: 1mph
Humidity: 78%   Direction: NA
Pressure: 29.94"   Gusts: NA
Location:  24.33°N, 121.73°E
Report Text: RCSS 201700Z VRB01KT 9999 FEW030 25/21 Q1014 NOSIG RMK A2996
Loading
Personal Weather Stations






























Interactive Weather Map
Tropical Storm Tracking
New forecast layout! Learn more

10-Day Weather Forecast

Advertisements
Track Severe Weather on mobile